| time (UTC) | temp F | wind direction | speed knots | gust knots | rain 1hr in | rain 24hr in | rain mn in | humidity % | barometer mb |
| 20260509123230 | 50 | 102 | 0.0 | 0.0 | 0.00 | 0.00 | 0.00 | 88 | 1006.5 |
| 20260509123007 | 49 | 102 | 0.0 | 0.0 | 0.00 | 0.00 | 0.00 | 88 | 1006.8 |
| 20260509121722 | 49 | 102 | 0.0 | 0.0 | 0.00 | 0.01 | 0.00 | 89 | 1006.6 |
| 20260509121603 | 48 | 102 | 0.0 | 0.0 | 0.00 | 0.00 | 0.00 | 89 | 1006.8 |
| 20260509120241 | 47 | 102 | 0.0 | 0.0 | 0.00 | 0.01 | 0.00 | 92 | 1006.5 |
| 20260509120040 | 46 | 102 | 0.0 | 0.0 | 0.00 | 0.00 | 0.00 | 92 | 1006.7 |
| 20260509114759 | 45 | 102 | 0.0 | 0.0 | 0.00 | 0.01 | 0.00 | 94 | 1006.5 |
| 20260509114605 | 44 | 102 | 0.0 | 0.0 | 0.00 | 0.00 | 0.00 | 94 | 1006.6 |
| 20260509113219 | 43 | 102 | 0.0 | 0.0 | 0.00 | 0.01 | 0.00 | 96 | 1006.6 |
| 20260509113057 | 42 | 102 | 0.0 | 0.0 | 0.00 | 0.00 | 0.00 | 96 | 1006.9 |
| 20260509111731 | 41 | 102 | 0.0 | 0.0 | 0.00 | 0.01 | 0.00 | 96 | 1006.6 |
| 20260509111505 | 40 | 102 | 0.0 | 0.0 | 0.00 | 0.00 | 0.00 | 96 | 1006.8 |
| 20260509110241 | 40 | 102 | 0.0 | 0.0 | 0.00 | 0.01 | 0.00 | 95 | 1006.7 |
| 20260509110132 | 39 | 102 | 0.0 | 0.0 | 0.00 | 0.00 | 0.00 | 95 | 1006.9 |
| 20260509104738 | 39 | 102 | 0.0 | 0.0 | 0.00 | 0.01 | 0.00 | 95 | 1006.6 |
| 20260509104557 | 38 | 102 | 0.0 | 0.0 | 0.00 | 0.00 | 0.00 | 95 | 1006.8 |
| 20260509103230 | 38 | 102 | 0.0 | 0.0 | 0.00 | 0.01 | 0.00 | 95 | 1006.4 |
| 20260509103046 | 37 | 102 | 0.0 | 0.0 | 0.00 | 0.00 | 0.00 | 95 | 1006.6 |
| 20260509101733 | 37 | 102 | 0.0 | 0.0 | 0.00 | 0.01 | 0.00 | 95 | 1006.5 |
| 20260509101629 | 36 | 102 | 0.0 | 0.0 | 0.00 | 0.00 | 0.00 | 95 | 1006.7 |
| 20260509100233 | 36 | 102 | 0.0 | 0.0 | 0.00 | 0.01 | 0.00 | 95 | 1006.4 |
| 20260509100113 | 36 | 102 | 0.0 | 0.0 | 0.00 | 0.00 | 0.00 | 95 | 1006.6 |
| 20260509094725 | 36 | 102 | 0.0 | 0.0 | 0.00 | 0.01 | 0.00 | 94 | 1006.5 |
| 20260509094600 | 36 | 102 | 0.0 | 0.0 | 0.00 | 0.00 | 0.00 | 94 | 1006.7 |
| 20260509093237 | 37 | 102 | 0.0 | 0.0 | 0.00 | 0.01 | 0.00 | 93 | 1006.5 |
| 20260509093041 | 36 | 102 | 0.0 | 0.0 | 0.00 | 0.00 | 0.00 | 93 | 1006.8 |
| 20260509091756 | 37 | 102 | 0.0 | 0.0 | 0.00 | 0.01 | 0.00 | 93 | 1006.5 |
| 20260509091556 | 37 | 102 | 0.0 | 0.0 | 0.00 | 0.00 | 0.00 | 93 | 1006.7 |
| 20260509090233 | 37 | 102 | 0.0 | 0.0 | 0.00 | 0.01 | 0.00 | 93 | 1006.4 |
| 20260509090051 | 37 | 102 | 0.0 | 0.0 | 0.00 | 0.00 | 0.00 | 93 | 1006.7 |
| 20260509084730 | 37 | 102 | 0.0 | 0.0 | 0.00 | 0.01 | 0.00 | 93 | 1006.6 |
| 20260509084506 | 37 | 102 | 0.0 | 0.0 | 0.00 | 0.00 | 0.00 | 93 | 1006.9 |
| 20260509083226 | 38 | 102 | 0.0 | 0.0 | 0.00 | 0.01 | 0.00 | 94 | 1006.7 |
| 20260509083122 | 37 | 102 | 0.0 | 0.0 | 0.00 | 0.00 | 0.00 | 94 | 1007.1 |
| 20260509081734 | 37 | 102 | 0.0 | 0.0 | 0.00 | 0.01 | 0.00 | 94 | 1006.9 |
| 20260509081608 | 37 | 102 | 0.0 | 0.0 | 0.00 | 0.00 | 0.00 | 94 | 1007.1 |
| 20260509080240 | 37 | 102 | 0.0 | 0.0 | 0.00 | 0.01 | 0.00 | 94 | 1007.0 |
| 20260509080059 | 37 | 102 | 0.0 | 0.0 | 0.00 | 0.00 | 0.00 | 94 | 1007.3 |
| 20260509074735 | 37 | 102 | 0.0 | 0.0 | 0.00 | 0.01 | 0.00 | 94 | 1007.2 |
| 20260509074552 | 36 | 102 | 0.0 | 0.0 | 0.00 | 0.00 | 0.00 | 94 | 1007.5 |
| 20260509073228 | 37 | 102 | 0.0 | 0.0 | 0.00 | 0.01 | 0.00 | 95 | 1007.2 |
| 20260509073008 | 36 | 102 | 0.0 | 0.0 | 0.00 | 0.00 | 0.00 | 95 | 1007.7 |
| 20260509071729 | 37 | 102 | 0.0 | 0.0 | 0.00 | 0.01 | 0.00 | 95 | 1007.4 |
| 20260509071613 | 36 | 102 | 0.0 | 0.0 | 0.00 | 0.00 | 0.00 | 95 | 1007.7 |
| 20260509070248 | 37 | 102 | 0.0 | 0.0 | 0.00 | 0.01 | 0.00 | 94 | 1007.5 |
| 20260509070040 | 36 | 102 | 0.0 | 0.0 | 0.00 | 0.00 | 0.00 | 94 | 1007.7 |
| 20260509064729 | 38 | 102 | 0.0 | 0.0 | 0.00 | 0.01 | 0.00 | 95 | 1007.8 |
| 20260509064605 | 37 | 102 | 0.0 | 0.0 | 0.00 | 0.00 | 0.00 | 95 | 1008.0 |
| 20260509063223 | 38 | 102 | 0.0 | 0.0 | 0.00 | 0.01 | 0.00 | 95 | 1007.9 |
| 20260509063056 | 37 | 102 | 0.0 | 0.0 | 0.00 | 0.00 | 0.00 | 95 | 1008.1 |
| 20260509061753 | 38 | 102 | 0.0 | 0.0 | 0.00 | 0.02 | 0.00 | 95 | 1008.1 |
| 20260509061557 | 37 | 102 | 0.0 | 0.0 | 0.00 | 0.00 | 0.00 | 95 | 1008.3 |
| 20260509060234 | 38 | 102 | 0.0 | 0.0 | 0.00 | 0.02 | 0.00 | 95 | 1008.2 |
| 20260509060105 | 38 | 102 | 0.0 | 0.0 | 0.00 | 0.00 | 0.00 | 95 | 1008.5 |
| 20260509054733 | 38 | 102 | 0.0 | 0.0 | 0.00 | 0.02 | 0.00 | 96 | 1008.3 |
| 20260509054503 | 37 | 102 | 0.0 | 0.0 | 0.00 | 0.00 | 0.00 | 96 | 1008.6 |
| 20260509053236 | 38 | 102 | 0.0 | 0.0 | 0.00 | 0.02 | 0.00 | 95 | 1008.5 |
| 20260509053118 | 37 | 102 | 0.0 | 0.0 | 0.00 | 0.00 | 0.00 | 95 | 1008.6 |
| 20260509051728 | 37 | 102 | 0.0 | 0.0 | 0.00 | 0.02 | 0.00 | 95 | 1008.7 |
| 20260509051606 | 37 | 102 | 0.0 | 0.0 | 0.00 | 0.00 | 0.00 | 95 | 1008.9 |
| 20260509050230 | 37 | 102 | 0.0 | 0.0 | 0.00 | 0.02 | 0.00 | 94 | 1008.7 |
| 20260509050049 | 37 | 102 | 0.0 | 0.0 | 0.00 | 0.00 | 0.00 | 94 | 1008.9 |
| 20260509044731 | 37 | 102 | 0.0 | 0.0 | 0.00 | 0.02 | 0.00 | 93 | 1008.7 |
| 20260509044501 | 37 | 102 | 0.0 | 0.0 | 0.00 | 0.00 | 0.00 | 93 | 1009.0 |
| 20260509043243 | 38 | 102 | 0.0 | 0.0 | 0.00 | 0.02 | 0.00 | 93 | 1009.0 |
| 20260509043053 | 37 | 102 | 0.0 | 0.0 | 0.00 | 0.00 | 0.00 | 93 | 1009.2 |
| 20260509041737 | 38 | 102 | 0.0 | 0.0 | 0.00 | 0.03 | 0.00 | 93 | 1008.9 |
| 20260509041620 | 37 | 102 | 0.0 | 0.0 | 0.00 | 0.00 | 0.00 | 93 | 1009.3 |
| 20260509040240 | 38 | 102 | 0.0 | 0.0 | 0.00 | 0.03 | 0.00 | 93 | 1009.3 |
| 20260509040011 | 38 | 102 | 0.0 | 0.0 | 0.00 | 0.00 | 0.00 | 93 | 1009.4 |
| 20260509034750 | 38 | 102 | 0.0 | 0.0 | 0.00 | 0.03 | 0.00 | 92 | 1009.3 |
| 20260509034515 | 38 | 102 | 0.0 | 0.0 | 0.00 | 0.00 | 0.00 | 92 | 1009.6 |
| 20260509033242 | 39 | 102 | 0.0 | 0.0 | 0.00 | 0.03 | 0.02 | 91 | 1009.3 |
| 20260509033126 | 38 | 102 | 0.0 | 0.0 | 0.00 | 0.00 | 0.02 | 91 | 1009.6 |
| 20260509031725 | 39 | 102 | 0.0 | 0.0 | 0.00 | 0.05 | 0.02 | 90 | 1009.4 |
| 20260509031549 | 39 | 102 | 0.0 | 0.0 | 0.00 | 0.00 | 0.02 | 90 | 1009.5 |
| 20260509030253 | 40 | 102 | 0.0 | 0.0 | 0.00 | 0.05 | 0.02 | 89 | 1009.4 |
| 20260509030110 | 39 | 102 | 0.0 | 0.0 | 0.00 | 0.00 | 0.02 | 89 | 1009.8 |
| 20260509024738 | 40 | 102 | 0.0 | 0.0 | 0.00 | 0.05 | 0.02 | 89 | 1009.5 |
| 20260509024606 | 40 | 102 | 0.0 | 0.0 | 0.00 | 0.00 | 0.02 | 89 | 1009.7 |
| 20260509023236 | 40 | 102 | 0.0 | 0.0 | 0.00 | 0.05 | 0.02 | 88 | 1009.4 |
| 20260509023041 | 40 | 102 | 0.0 | 0.0 | 0.00 | 0.00 | 0.02 | 88 | 1009.6 |
| 20260509021732 | 41 | 102 | 0.0 | 0.0 | 0.00 | 0.11 | 0.02 | 87 | 1009.4 |
| 20260509021617 | 40 | 102 | 0.0 | 0.0 | 0.00 | 0.00 | 0.02 | 87 | 1009.7 |
| 20260509020228 | 41 | 102 | 0.0 | 0.0 | 0.00 | 0.11 | 0.02 | 85 | 1009.5 |
| 20260509020113 | 41 | 102 | 0.0 | 0.0 | 0.00 | 0.00 | 0.02 | 85 | 1009.7 |
| 20260509014733 | 42 | 102 | 0.0 | 0.0 | 0.00 | 0.11 | 0.02 | 82 | 1009.4 |
| 20260509014548 | 42 | 102 | 0.0 | 0.0 | 0.00 | 0.00 | 0.02 | 82 | 1009.7 |
| 20260509013226 | 43 | 102 | 0.0 | 0.0 | 0.00 | 0.11 | 0.02 | 79 | 1009.5 |
| 20260509013121 | 43 | 102 | 0.0 | 0.0 | 0.00 | 0.00 | 0.02 | 78 | 1009.7 |
| 20260509011734 | 45 | 102 | 0.0 | 0.0 | 0.00 | 0.13 | 0.02 | 76 | 1009.5 |
| 20260509011611 | 44 | 102 | 0.0 | 0.0 | 0.00 | 0.00 | 0.02 | 76 | 1009.7 |
| 20260509010235 | 46 | 102 | 0.0 | 0.9 | 0.00 | 0.13 | 0.02 | 73 | 1009.1 |
| 20260509004733 | 47 | 102 | 0.0 | 0.0 | 0.00 | 0.13 | 0.02 | 71 | 1009.1 |
| 20260509004521 | 46 | 102 | 0.0 | 0.0 | 0.00 | 0.00 | 0.02 | 71 | 1009.2 |
| 20260509003227 | 48 | 102 | 0.0 | 0.9 | 0.00 | 0.13 | 0.02 | 69 | 1008.8 |
| 20260509003114 | 47 | 102 | 0.0 | 0.0 | 0.00 | 0.00 | 0.02 | 69 | 1009.0 |
| 20260509001738 | 49 | 102 | 0.0 | 2.6 | 0.00 | 0.13 | 0.02 | 69 | 1008.9 |
| 20260509001540 | 48 | 102 | 0.0 | 0.0 | 0.00 | 0.00 | 0.02 | 70 | 1009.1 |
| 20260509000219 | 49 | 102 | 0.9 | 1.7 | 0.00 | 0.13 | 0.02 | 69 | 1008.7 |
| 20260509000009 | 49 | 102 | 0.0 | 0.0 | 0.00 | 0.00 | 0.02 | 69 | 1009.0 |
| 20260508234743 | 49 | 102 | 0.0 | 2.6 | 0.00 | 0.13 | 0.02 | 69 | 1008.8 |
| 20260508234545 | 49 | 102 | 0.9 | 0.0 | 0.00 | 0.00 | 0.02 | 69 | 1009.0 |
| 20260508233232 | 50 | 101 | 0.9 | 2.6 | 0.00 | 0.13 | 0.02 | 70 | 1008.8 |
| 20260508233130 | 49 | 101 | 0.9 | 0.0 | 0.00 | 0.00 | 0.02 | 70 | 1008.9 |
| 20260508231722 | 51 | 102 | 0.9 | 4.3 | 0.00 | 0.13 | 0.02 | 69 | 1008.6 |
| 20260508231606 | 50 | 102 | 0.9 | 0.0 | 0.00 | 0.00 | 0.02 | 68 | 1008.7 |
| 20260508230254 | 52 | 96 | 1.7 | 2.6 | 0.00 | 0.13 | 0.02 | 66 | 1008.5 |
| 20260508230014 | 52 | 96 | 0.9 | 0.0 | 0.00 | 0.00 | 0.02 | 65 | 1008.8 |
| 20260508224726 | 53 | 96 | 1.7 | 5.2 | 0.00 | 0.13 | 0.02 | 65 | 1008.6 |
| 20260508224517 | 53 | 98 | 1.7 | 0.0 | 0.00 | 0.00 | 0.02 | 64 | 1008.8 |
| 20260508223247 | 54 | 97 | 0.0 | 3.5 | 0.00 | 0.13 | 0.02 | 64 | 1008.6 |
| 20260508223056 | 53 | 97 | 0.9 | 0.0 | 0.00 | 0.00 | 0.02 | 64 | 1008.7 |
| 20260508221739 | 54 | 99 | 3.5 | 5.2 | 0.00 | 0.13 | 0.02 | 63 | 1008.7 |
| 20260508221542 | 54 | 78 | 0.9 | 0.0 | 0.00 | 0.00 | 0.02 | 62 | 1008.8 |
| 20260508220238 | 55 | 77 | 0.9 | 3.5 | 0.00 | 0.13 | 0.02 | 58 | 1008.8 |
| 20260508220144 | 55 | 77 | 1.7 | 0.0 | 0.00 | 0.00 | 0.02 | 58 | 1009.0 |
| 20260508214733 | 56 | 51 | 0.0 | 1.7 | 0.00 | 0.13 | 0.02 | 61 | 1008.8 |
| 20260508214556 | 55 | 51 | 0.0 | 0.0 | 0.00 | 0.00 | 0.02 | 59 | 1009.0 |
| 20260508213225 | 56 | 51 | 0.9 | 5.2 | 0.00 | 0.13 | 0.02 | 60 | 1009.1 |
| 20260508213014 | 56 | 51 | 1.7 | 0.0 | 0.00 | 0.00 | 0.02 | 61 | 1009.2 |
| 20260508211758 | 56 | 53 | 0.9 | 4.3 | 0.00 | 0.13 | 0.02 | 59 | 1009.0 |
| 20260508211600 | 55 | 53 | 0.9 | 0.0 | 0.00 | 0.00 | 0.02 | 59 | 1009.2 |
| 20260508210234 | 55 | 37 | 1.7 | 5.2 | 0.00 | 0.13 | 0.02 | 63 | 1009.1 |
| 20260508210052 | 55 | 34 | 2.6 | 0.0 | 0.00 | 0.00 | 0.02 | 63 | 1009.3 |
| 20260508204739 | 55 | 311 | 1.7 | 5.2 | 0.00 | 0.13 | 0.02 | 61 | 1009.1 |
| 20260508204538 | 55 | 311 | 2.6 | 0.0 | 0.00 | 0.00 | 0.02 | 61 | 1009.5 |
| 20260508203227 | 57 | 315 | 5.2 | 7.8 | 0.00 | 0.13 | 0.02 | 64 | 1009.3 |
| 20260508203109 | 56 | 360 | 3.5 | 0.0 | 0.00 | 0.00 | 0.02 | 64 | 1009.5 |
| 20260508201746 | 55 | 307 | 0.0 | 4.3 | 0.00 | 0.13 | 0.02 | 60 | 1009.4 |
| 20260508201617 | 55 | 307 | 0.9 | 0.0 | 0.00 | 0.00 | 0.02 | 60 | 1009.7 |
| 20260508200235 | 55 | 320 | 0.9 | 7.8 | 0.00 | 0.13 | 0.02 | 67 | 1009.5 |
| 20260508194735 | 54 | 313 | 4.3 | 10.4 | 0.00 | 0.13 | 0.02 | 68 | 1009.7 |
| 20260508194551 | 54 | 5 | 4.3 | 0.0 | 0.00 | 0.00 | 0.02 | 66 | 1010.1 |
| 20260508193226 | 56 | 309 | 4.3 | 10.4 | 0.00 | 0.13 | 0.02 | 66 | 1009.9 |
| 20260508193122 | 56 | 333 | 3.5 | 0.0 | 0.00 | 0.00 | 0.02 | 66 | 1010.3 |
| 20260508191740 | 56 | 327 | 0.9 | 6.1 | 0.00 | 0.13 | 0.02 | 67 | 1010.0 |
| 20260508191603 | 55 | 326 | 2.6 | 0.0 | 0.00 | 0.00 | 0.02 | 67 | 1010.3 |
| 20260508190235 | 56 | 355 | 2.6 | 7.8 | 0.00 | 0.13 | 0.02 | 71 | 1010.3 |
| 20260508184729 | 55 | 355 | 1.7 | 6.1 | 0.00 | 0.13 | 0.02 | 70 | 1010.1 |
| 20260508184504 | 54 | 25 | 3.5 | 0.0 | 0.00 | 0.00 | 0.02 | 68 | 1010.4 |
| 20260508183232 | 56 | 319 | 5.2 | 8.7 | 0.00 | 0.13 | 0.02 | 69 | 1010.0 |
| 20260508183119 | 55 | 317 | 3.5 | 0.0 | 0.00 | 0.00 | 0.02 | 68 | 1010.3 |
| 20260508181736 | 56 | 32 | 5.2 | 7.8 | 0.00 | 0.13 | 0.02 | 66 | 1010.1 |
| 20260508181605 | 55 | 36 | 5.2 | 0.0 | 0.00 | 0.00 | 0.02 | 67 | 1010.3 |
| 20260508180229 | 55 | 331 | 4.3 | 6.1 | 0.00 | 0.13 | 0.02 | 73 | 1010.0 |
| 20260508180106 | 55 | 317 | 0.9 | 0.0 | 0.00 | 0.00 | 0.02 | 71 | 1010.1 |
| 20260508174732 | 53 | 281 | 3.5 | 11.3 | 0.00 | 0.13 | 0.02 | 71 | 1010.3 |
| 20260508174543 | 52 | 315 | 3.5 | 0.0 | 0.00 | 0.00 | 0.02 | 65 | 1010.7 |
| 20260508173224 | 52 | 265 | 0.9 | 9.6 | 0.00 | 0.13 | 0.02 | 63 | 1010.4 |
| 20260508173116 | 52 | 347 | 3.5 | 0.0 | 0.00 | 0.00 | 0.02 | 61 | 1010.6 |
| 20260508171732 | 52 | 239 | 4.3 | 7.8 | 0.00 | 0.13 | 0.02 | 69 | 1010.5 |
| 20260508171554 | 52 | 208 | 1.7 | 0.0 | 0.00 | 0.00 | 0.02 | 71 | 1010.8 |
| 20260508170238 | 51 | 245 | 0.9 | 4.3 | 0.00 | 0.13 | 0.02 | 70 | 1010.6 |
| 20260508170118 | 51 | 246 | 1.7 | 0.0 | 0.00 | 0.00 | 0.02 | 68 | 1010.9 |
| 20260508164718 | 51 | 252 | 0.9 | 7.8 | 0.00 | 0.13 | 0.02 | 67 | 1010.8 |
| 20260508164607 | 50 | 221 | 1.7 | 0.0 | 0.00 | 0.00 | 0.02 | 65 | 1011.0 |
| 20260508163236 | 50 | 250 | 0.0 | 6.1 | 0.00 | 0.13 | 0.02 | 72 | 1011.0 |
| 20260508163106 | 49 | 248 | 2.6 | 0.0 | 0.00 | 0.00 | 0.02 | 71 | 1011.3 |
| 20260508161737 | 49 | 264 | 3.5 | 7.8 | 0.00 | 0.13 | 0.02 | 74 | 1011.2 |
| 20260508161555 | 49 | 273 | 2.6 | 0.0 | 0.00 | 0.00 | 0.02 | 75 | 1011.4 |
| 20260508160240 | 48 | 284 | 1.7 | 5.2 | 0.00 | 0.13 | 0.02 | 76 | 1011.2 |
| 20260508160006 | 47 | 286 | 0.9 | 0.0 | 0.00 | 0.00 | 0.02 | 76 | 1011.7 |
| 20260508154735 | 47 | 267 | 0.0 | 5.2 | 0.00 | 0.13 | 0.02 | 78 | 1011.5 |
| 20260508154606 | 47 | 267 | 1.7 | 0.0 | 0.00 | 0.00 | 0.02 | 79 | 1011.7 |
| 20260508153235 | 48 | 278 | 3.5 | 6.1 | 0.00 | 0.13 | 0.02 | 79 | 1011.4 |
| 20260508153036 | 47 | 229 | 1.7 | 0.0 | 0.00 | 0.00 | 0.02 | 80 | 1011.6 |
| 20260508151739 | 46 | 229 | 1.7 | 7.0 | 0.00 | 0.13 | 0.02 | 81 | 1011.2 |
| 20260508151617 | 46 | 230 | 1.7 | 0.0 | 0.00 | 0.00 | 0.02 | 82 | 1011.4 |
| 20260508150245 | 46 | 248 | 0.0 | 6.1 | 0.00 | 0.13 | 0.02 | 87 | 1011.2 |
| 20260508150049 | 45 | 248 | 2.6 | 0.0 | 0.00 | 0.00 | 0.02 | 87 | 1011.4 |
| 20260508144737 | 46 | 226 | 2.6 | 7.8 | 0.00 | 0.13 | 0.02 | 90 | 1011.2 |
| 20260508144508 | 46 | 185 | 3.5 | 0.0 | 0.00 | 0.00 | 0.02 | 90 | 1011.5 |
| 20260508143233 | 45 | 189 | 0.9 | 6.1 | 0.00 | 0.13 | 0.02 | 91 | 1011.4 |
| 20260508143118 | 44 | 205 | 2.6 | 0.0 | 0.00 | 0.00 | 0.02 | 91 | 1011.7 |
| 20260508141723 | 44 | 200 | 4.3 | 8.7 | 0.00 | 0.13 | 0.02 | 92 | 1011.2 |
| 20260508141557 | 44 | 190 | 2.6 | 0.0 | 0.00 | 0.00 | 0.02 | 92 | 1011.4 |
| 20260508140250 | 44 | 190 | 2.6 | 8.7 | 0.00 | 0.13 | 0.02 | 93 | 1011.0 |
| 20260508140142 | 43 | 190 | 2.6 | 0.0 | 0.00 | 0.00 | 0.02 | 93 | 1011.3 |
| 20260508134719 | 43 | 229 | 0.9 | 7.0 | 0.00 | 0.13 | 0.02 | 96 | 1010.9 |
| 20260508134554 | 42 | 230 | 2.6 | 0.0 | 0.00 | 0.00 | 0.02 | 96 | 1011.1 |
| 20260508133231 | 40 | 207 | 1.7 | 4.3 | 0.00 | 0.13 | 0.02 | 97 | 1011.0 |
| 20260508133001 | 40 | 208 | 0.9 | 0.0 | 0.00 | 0.00 | 0.02 | 96 | 1011.5 |
| 20260508131722 | 39 | 209 | 0.9 | 5.2 | 0.01 | 0.13 | 0.02 | 96 | 1011.4 |
| 20260508131606 | 39 | 208 | 1.7 | 0.0 | 0.00 | 0.00 | 0.02 | 95 | 1011.7 |
| 20260508130230 | 39 | 257 | 6.1 | 10.4 | 0.01 | 0.13 | 0.02 | 95 | 1011.5 |
| 20260508130105 | 39 | 240 | 4.3 | 0.0 | 0.00 | 0.00 | 0.02 | 95 | 1011.8 |
| 20260508124745 | 41 | 224 | 0.9 | 9.6 | 0.01 | 0.13 | 0.02 | 97 | 1011.2 |
| 20260508124623 | 40 | 224 | 3.5 | 0.0 | 0.00 | 0.00 | 0.02 | 97 | 1011.5 |